sensor_id;sensor_type;location;lat;lon;timestamp;P1;durP1;ratioP1;P2;durP2;ratioP2
83682;SDS011;73663;51.298;5.802;2024-03-02T00:03:07;1.38;;;0.60;;
83682;SDS011;73663;51.298;5.802;2024-03-02T00:08:16;0.57;;;0.40;;
83682;SDS011;73663;51.298;5.802;2024-03-02T00:13:28;1.02;;;0.43;;
83682;SDS011;73663;51.298;5.802;2024-03-02T00:18:36;1.73;;;0.60;;
83682;SDS011;73663;51.298;5.802;2024-03-02T00:23:44;4.50;;;0.73;;
83682;SDS011;73663;51.298;5.802;2024-03-02T00:28:52;2.38;;;0.47;;
83682;SDS011;73663;51.298;5.802;2024-03-02T00:34:01;1.33;;;0.65;;
83682;SDS011;73663;51.298;5.802;2024-03-02T00:39:13;1.05;;;0.45;;
83682;SDS011;73663;51.298;5.802;2024-03-02T00:44:22;3.85;;;0.80;;
83682;SDS011;73663;51.298;5.802;2024-03-02T00:54:36;0.40;;;0.30;;
83682;SDS011;73663;51.298;5.802;2024-03-02T00:59:44;0.75;;;0.30;;
83682;SDS011;73663;51.298;5.802;2024-03-02T01:04:51;0.20;;;0.10;;
83682;SDS011;73663;51.298;5.802;2024-03-02T01:09:59;0.28;;;0.17;;
83682;SDS011;73663;51.298;5.802;2024-03-02T01:15:06;0.10;;;0.10;;
83682;SDS011;73663;51.298;5.802;2024-03-02T01:20:14;0.10;;;0.10;;
83682;SDS011;73663;51.298;5.802;2024-03-02T01:25:22;0.30;;;0.20;;
83682;SDS011;73663;51.298;5.802;2024-03-02T01:30:29;0.75;;;0.20;;
83682;SDS011;73663;51.298;5.802;2024-03-02T01:35:37;0.73;;;0.10;;
83682;SDS011;73663;51.298;5.802;2024-03-02T01:40:44;0.20;;;0.20;;
83682;SDS011;73663;51.298;5.802;2024-03-02T01:45:52;4.20;;;0.30;;
83682;SDS011;73663;51.298;5.802;2024-03-02T01:50:59;0.30;;;0.20;;
83682;SDS011;73663;51.298;5.802;2024-03-02T01:56:07;0.65;;;0.20;;
83682;SDS011;73663;51.298;5.802;2024-03-02T02:01:14;0.50;;;0.20;;
83682;SDS011;73663;51.298;5.802;2024-03-02T02:06:22;0.22;;;0.15;;
83682;SDS011;73663;51.298;5.802;2024-03-02T02:11:29;1.88;;;0.30;;
83682;SDS011;73663;51.298;5.802;2024-03-02T02:16:37;0.70;;;0.20;;
83682;SDS011;73663;51.298;5.802;2024-03-02T02:21:44;0.50;;;0.30;;
83682;SDS011;73663;51.298;5.802;2024-03-02T02:26:52;0.20;;;0.10;;
83682;SDS011;73663;51.298;5.802;2024-03-02T02:32:00;0.22;;;0.20;;
83682;SDS011;73663;51.298;5.802;2024-03-02T02:37:07;0.10;;;0.10;;
83682;SDS011;73663;51.298;5.802;2024-03-02T02:42:15;1.75;;;0.40;;
83682;SDS011;73663;51.298;5.802;2024-03-02T02:47:22;1.80;;;0.30;;
83682;SDS011;73663;51.298;5.802;2024-03-02T02:52:30;0.20;;;0.20;;
83682;SDS011;73663;51.298;5.802;2024-03-02T02:57:41;1.40;;;0.30;;
83682;SDS011;73663;51.298;5.802;2024-03-02T03:02:49;0.35;;;0.22;;
83682;SDS011;73663;51.298;5.802;2024-03-02T03:07:57;1.38;;;0.32;;
83682;SDS011;73663;51.298;5.802;2024-03-02T03:13:05;0.60;;;0.40;;
83682;SDS011;73663;51.298;5.802;2024-03-02T03:18:12;0.82;;;0.13;;
83682;SDS011;73663;51.298;5.802;2024-03-02T03:23:20;0.43;;;0.30;;
83682;SDS011;73663;51.298;5.802;2024-03-02T03:28:28;0.85;;;0.20;;
83682;SDS011;73663;51.298;5.802;2024-03-02T03:33:35;0.75;;;0.38;;
83682;SDS011;73663;51.298;5.802;2024-03-02T03:38:43;0.93;;;0.30;;
83682;SDS011;73663;51.298;5.802;2024-03-02T03:43:51;1.45;;;0.30;;
83682;SDS011;73663;51.298;5.802;2024-03-02T03:48:58;2.80;;;0.30;;
83682;SDS011;73663;51.298;5.802;2024-03-02T03:54:05;0.60;;;0.30;;
83682;SDS011;73663;51.298;5.802;2024-03-02T03:59:13;0.50;;;0.20;;
83682;SDS011;73663;51.298;5.802;2024-03-02T04:04:20;0.75;;;0.30;;
83682;SDS011;73663;51.298;5.802;2024-03-02T04:09:28;1.15;;;0.20;;
83682;SDS011;73663;51.298;5.802;2024-03-02T04:14:37;1.02;;;0.28;;
83682;SDS011;73663;51.298;5.802;2024-03-02T04:19:44;0.45;;;0.30;;
83682;SDS011;73663;51.298;5.802;2024-03-02T04:24:52;1.15;;;0.40;;
83682;SDS011;73663;51.298;5.802;2024-03-02T04:29:59;1.08;;;0.20;;
83682;SDS011;73663;51.298;5.802;2024-03-02T04:35:07;0.88;;;0.30;;
83682;SDS011;73663;51.298;5.802;2024-03-02T04:40:14;2.20;;;0.43;;
83682;SDS011;73663;51.298;5.802;2024-03-02T04:45:22;0.30;;;0.25;;
83682;SDS011;73663;51.298;5.802;2024-03-02T04:50:29;0.50;;;0.30;;
83682;SDS011;73663;51.298;5.802;2024-03-02T04:55:37;1.48;;;0.38;;
83682;SDS011;73663;51.298;5.802;2024-03-02T05:01:02;0.60;;;0.22;;
83682;SDS011;73663;51.298;5.802;2024-03-02T05:06:10;0.40;;;0.30;;
83682;SDS011;73663;51.298;5.802;2024-03-02T05:11:17;0.55;;;0.30;;
83682;SDS011;73663;51.298;5.802;2024-03-02T05:16:58;0.88;;;0.22;;
83682;SDS011;73663;51.298;5.802;2024-03-02T05:22:06;0.45;;;0.32;;
83682;SDS011;73663;51.298;5.802;2024-03-02T05:27:13;0.20;;;0.20;;
83682;SDS011;73663;51.298;5.802;2024-03-02T05:32:21;0.55;;;0.20;;
83682;SDS011;73663;51.298;5.802;2024-03-02T05:37:28;1.10;;;0.20;;
83682;SDS011;73663;51.298;5.802;2024-03-02T05:42:36;0.50;;;0.30;;
83682;SDS011;73663;51.298;5.802;2024-03-02T05:47:43;1.15;;;0.45;;
83682;SDS011;73663;51.298;5.802;2024-03-02T05:52:51;0.77;;;0.40;;
83682;SDS011;73663;51.298;5.802;2024-03-02T05:57:58;0.32;;;0.20;;
83682;SDS011;73663;51.298;5.802;2024-03-02T06:03:22;1.45;;;0.38;;
83682;SDS011;73663;51.298;5.802;2024-03-02T06:08:30;1.02;;;0.20;;
83682;SDS011;73663;51.298;5.802;2024-03-02T06:13:37;0.85;;;0.30;;
83682;SDS011;73663;51.298;5.802;2024-03-02T06:18:45;0.40;;;0.40;;
83682;SDS011;73663;51.298;5.802;2024-03-02T06:23:52;0.70;;;0.30;;
83682;SDS011;73663;51.298;5.802;2024-03-02T06:29:00;0.95;;;0.30;;
83682;SDS011;73663;51.298;5.802;2024-03-02T06:34:07;3.30;;;0.50;;
83682;SDS011;73663;51.298;5.802;2024-03-02T06:39:15;1.45;;;0.40;;
83682;SDS011;73663;51.298;5.802;2024-03-02T06:44:22;0.40;;;0.30;;
83682;SDS011;73663;51.298;5.802;2024-03-02T06:49:30;2.95;;;1.60;;
83682;SDS011;73663;51.298;5.802;2024-03-02T06:54:37;0.45;;;0.45;;
83682;SDS011;73663;51.298;5.802;2024-03-02T06:59:45;1.45;;;0.50;;
83682;SDS011;73663;51.298;5.802;2024-03-02T07:04:52;7.10;;;2.03;;
83682;SDS011;73663;51.298;5.802;2024-03-02T07:09:59;3.75;;;1.17;;
83682;SDS011;73663;51.298;5.802;2024-03-02T07:15:07;2.63;;;0.55;;
83682;SDS011;73663;51.298;5.802;2024-03-02T07:25:40;1.98;;;0.30;;
83682;SDS011;73663;51.298;5.802;2024-03-02T07:30:50;1.70;;;0.45;;
83682;SDS011;73663;51.298;5.802;2024-03-02T07:36:12;1.80;;;0.70;;
83682;SDS011;73663;51.298;5.802;2024-03-02T07:41:19;2.70;;;0.50;;
83682;SDS011;73663;51.298;5.802;2024-03-02T07:46:27;2.42;;;0.50;;
83682;SDS011;73663;51.298;5.802;2024-03-02T07:51:34;5.28;;;1.30;;
83682;SDS011;73663;51.298;5.802;2024-03-02T07:56:42;3.40;;;0.50;;
83682;SDS011;73663;51.298;5.802;2024-03-02T08:01:49;2.40;;;0.50;;
83682;SDS011;73663;51.298;5.802;2024-03-02T08:06:57;1.20;;;0.40;;
83682;SDS011;73663;51.298;5.802;2024-03-02T08:12:04;3.20;;;0.60;;
83682;SDS011;73663;51.298;5.802;2024-03-02T08:17:12;0.45;;;0.32;;
83682;SDS011;73663;51.298;5.802;2024-03-02T08:22:20;1.48;;;0.50;;
83682;SDS011;73663;51.298;5.802;2024-03-02T08:27:27;1.35;;;0.47;;
83682;SDS011;73663;51.298;5.802;2024-03-02T08:32:35;1.38;;;0.40;;
83682;SDS011;73663;51.298;5.802;2024-03-02T08:37:42;0.90;;;0.40;;
83682;SDS011;73663;51.298;5.802;2024-03-02T08:42:50;1.92;;;0.40;;
83682;SDS011;73663;51.298;5.802;2024-03-02T08:47:57;1.58;;;0.60;;
83682;SDS011;73663;51.298;5.802;2024-03-02T08:53:08;2.47;;;0.47;;
83682;SDS011;73663;51.298;5.802;2024-03-02T08:58:15;1.45;;;0.30;;
83682;SDS011;73663;51.298;5.802;2024-03-02T09:03:23;1.35;;;0.40;;
83682;SDS011;73663;51.298;5.802;2024-03-02T09:08:30;1.80;;;0.52;;
83682;SDS011;73663;51.298;5.802;2024-03-02T09:13:38;2.05;;;0.60;;
83682;SDS011;73663;51.298;5.802;2024-03-02T09:18:46;1.40;;;0.40;;
83682;SDS011;73663;51.298;5.802;2024-03-02T09:23:54;0.30;;;0.30;;
83682;SDS011;73663;51.298;5.802;2024-03-02T09:29:01;1.48;;;0.38;;
83682;SDS011;73663;51.298;5.802;2024-03-02T09:34:09;1.17;;;0.32;;
83682;SDS011;73663;51.298;5.802;2024-03-02T09:39:16;2.42;;;0.47;;
83682;SDS011;73663;51.298;5.802;2024-03-02T09:44:24;4.15;;;1.25;;
83682;SDS011;73663;51.298;5.802;2024-03-02T09:49:31;1.40;;;0.90;;
83682;SDS011;73663;51.298;5.802;2024-03-02T09:54:39;0.38;;;0.30;;
83682;SDS011;73663;51.298;5.802;2024-03-02T09:59:47;0.98;;;0.40;;
83682;SDS011;73663;51.298;5.802;2024-03-02T10:04:54;4.40;;;0.55;;
83682;SDS011;73663;51.298;5.802;2024-03-02T10:10:01;1.95;;;0.63;;
83682;SDS011;73663;51.298;5.802;2024-03-02T10:15:23;1.48;;;0.40;;
83682;SDS011;73663;51.298;5.802;2024-03-02T10:20:31;1.50;;;0.70;;
83682;SDS011;73663;51.298;5.802;2024-03-02T10:25:38;4.28;;;0.90;;
83682;SDS011;73663;51.298;5.802;2024-03-02T10:30:47;2.83;;;0.90;;
83682;SDS011;73663;51.298;5.802;2024-03-02T10:35:55;1.05;;;0.40;;
83682;SDS011;73663;51.298;5.802;2024-03-02T10:41:04;2.22;;;0.70;;
83682;SDS011;73663;51.298;5.802;2024-03-02T10:46:12;2.47;;;0.40;;
83682;SDS011;73663;51.298;5.802;2024-03-02T10:51:22;3.67;;;0.68;;
83682;SDS011;73663;51.298;5.802;2024-03-02T10:56:39;4.10;;;0.90;;
83682;SDS011;73663;51.298;5.802;2024-03-02T11:01:46;1.98;;;0.90;;
83682;SDS011;73663;51.298;5.802;2024-03-02T11:06:54;2.70;;;0.80;;
83682;SDS011;73663;51.298;5.802;2024-03-02T11:12:09;2.85;;;0.90;;
83682;SDS011;73663;51.298;5.802;2024-03-02T11:17:23;2.63;;;0.63;;
83682;SDS011;73663;51.298;5.802;2024-03-02T11:22:32;1.67;;;0.40;;
83682;SDS011;73663;51.298;5.802;2024-03-02T11:28:02;1.20;;;0.43;;
83682;SDS011;73663;51.298;5.802;2024-03-02T11:33:11;3.28;;;0.60;;
83682;SDS011;73663;51.298;5.802;2024-03-02T11:38:19;1.95;;;0.50;;
83682;SDS011;73663;51.298;5.802;2024-03-02T11:43:27;1.45;;;0.40;;
83682;SDS011;73663;51.298;5.802;2024-03-02T11:48:35;0.82;;;0.40;;
83682;SDS011;73663;51.298;5.802;2024-03-02T11:53:43;1.00;;;0.32;;
83682;SDS011;73663;51.298;5.802;2024-03-02T11:58:53;1.73;;;0.38;;
83682;SDS011;73663;51.298;5.802;2024-03-02T12:04:00;3.03;;;0.57;;
83682;SDS011;73663;51.298;5.802;2024-03-02T12:09:09;2.25;;;0.50;;
83682;SDS011;73663;51.298;5.802;2024-03-02T12:14:17;3.65;;;0.50;;
83682;SDS011;73663;51.298;5.802;2024-03-02T12:19:24;2.15;;;0.45;;
83682;SDS011;73663;51.298;5.802;2024-03-02T12:24:32;1.75;;;0.52;;
83682;SDS011;73663;51.298;5.802;2024-03-02T12:29:39;2.60;;;0.47;;
83682;SDS011;73663;51.298;5.802;2024-03-02T12:34:47;1.98;;;0.80;;
83682;SDS011;73663;51.298;5.802;2024-03-02T12:39:55;0.80;;;0.50;;
83682;SDS011;73663;51.298;5.802;2024-03-02T12:45:02;1.95;;;0.40;;
83682;SDS011;73663;51.298;5.802;2024-03-02T12:50:10;1.20;;;0.35;;
83682;SDS011;73663;51.298;5.802;2024-03-02T12:55:17;1.90;;;0.63;;
83682;SDS011;73663;51.298;5.802;2024-03-02T13:00:25;1.98;;;0.50;;
83682;SDS011;73663;51.298;5.802;2024-03-02T13:05:32;3.28;;;0.52;;
83682;SDS011;73663;51.298;5.802;2024-03-02T13:10:40;2.42;;;0.40;;
83682;SDS011;73663;51.298;5.802;2024-03-02T13:15:47;1.58;;;0.43;;
83682;SDS011;73663;51.298;5.802;2024-03-02T13:20:59;2.05;;;0.50;;
83682;SDS011;73663;51.298;5.802;2024-03-02T13:26:07;1.58;;;0.40;;
83682;SDS011;73663;51.298;5.802;2024-03-02T13:31:14;1.67;;;0.50;;
83682;SDS011;73663;51.298;5.802;2024-03-02T13:36:22;2.38;;;0.70;;
83682;SDS011;73663;51.298;5.802;2024-03-02T13:41:29;2.03;;;0.40;;
83682;SDS011;73663;51.298;5.802;2024-03-02T13:46:37;1.33;;;0.60;;
83682;SDS011;73663;51.298;5.802;2024-03-02T13:51:44;4.13;;;0.60;;
83682;SDS011;73663;51.298;5.802;2024-03-02T13:56:52;1.23;;;0.40;;
83682;SDS011;73663;51.298;5.802;2024-03-02T14:01:59;2.67;;;0.50;;
83682;SDS011;73663;51.298;5.802;2024-03-02T14:07:07;3.13;;;0.70;;
83682;SDS011;73663;51.298;5.802;2024-03-02T14:12:14;2.53;;;0.70;;
83682;SDS011;73663;51.298;5.802;2024-03-02T14:17:21;10.85;;;5.57;;
83682;SDS011;73663;51.298;5.802;2024-03-02T14:22:29;1.27;;;0.50;;
83682;SDS011;73663;51.298;5.802;2024-03-02T14:27:37;2.22;;;0.70;;
83682;SDS011;73663;51.298;5.802;2024-03-02T14:32:45;1.95;;;0.40;;
83682;SDS011;73663;51.298;5.802;2024-03-02T14:37:52;1.17;;;0.43;;
83682;SDS011;73663;51.298;5.802;2024-03-02T14:43:00;1.48;;;0.63;;
83682;SDS011;73663;51.298;5.802;2024-03-02T14:48:07;2.22;;;0.40;;
83682;SDS011;73663;51.298;5.802;2024-03-02T14:53:15;1.60;;;0.40;;
83682;SDS011;73663;51.298;5.802;2024-03-02T14:58:22;2.20;;;0.50;;
83682;SDS011;73663;51.298;5.802;2024-03-02T15:03:29;1.40;;;0.50;;
83682;SDS011;73663;51.298;5.802;2024-03-02T15:08:37;0.68;;;0.40;;
83682;SDS011;73663;51.298;5.802;2024-03-02T15:13:44;0.85;;;0.55;;
83682;SDS011;73663;51.298;5.802;2024-03-02T15:18:52;2.05;;;0.57;;
83682;SDS011;73663;51.298;5.802;2024-03-02T15:23:59;1.60;;;0.50;;
83682;SDS011;73663;51.298;5.802;2024-03-02T15:29:07;1.58;;;0.50;;
83682;SDS011;73663;51.298;5.802;2024-03-02T15:34:14;0.95;;;0.40;;
83682;SDS011;73663;51.298;5.802;2024-03-02T15:39:22;1.48;;;0.50;;
83682;SDS011;73663;51.298;5.802;2024-03-02T15:44:29;0.82;;;0.50;;
83682;SDS011;73663;51.298;5.802;2024-03-02T15:49:37;1.00;;;0.60;;
83682;SDS011;73663;51.298;5.802;2024-03-02T15:54:44;1.95;;;0.40;;
83682;SDS011;73663;51.298;5.802;2024-03-02T15:59:52;1.73;;;0.43;;
83682;SDS011;73663;51.298;5.802;2024-03-02T16:04:59;1.38;;;0.57;;
83682;SDS011;73663;51.298;5.802;2024-03-02T16:10:07;0.95;;;0.50;;
83682;SDS011;73663;51.298;5.802;2024-03-02T16:15:14;1.02;;;0.70;;
83682;SDS011;73663;51.298;5.802;2024-03-02T16:20:22;1.25;;;0.70;;
83682;SDS011;73663;51.298;5.802;2024-03-02T16:25:30;1.00;;;0.70;;
83682;SDS011;73663;51.298;5.802;2024-03-02T16:30:37;1.48;;;0.60;;
83682;SDS011;73663;51.298;5.802;2024-03-02T16:35:45;1.50;;;0.70;;
83682;SDS011;73663;51.298;5.802;2024-03-02T16:40:52;0.80;;;0.60;;
83682;SDS011;73663;51.298;5.802;2024-03-02T16:46:00;1.25;;;0.73;;
83682;SDS011;73663;51.298;5.802;2024-03-02T16:51:07;3.40;;;2.13;;
83682;SDS011;73663;51.298;5.802;2024-03-02T16:56:15;4.53;;;1.60;;
83682;SDS011;73663;51.298;5.802;2024-03-02T17:01:22;2.10;;;0.95;;
83682;SDS011;73663;51.298;5.802;2024-03-02T17:06:30;2.70;;;1.00;;
83682;SDS011;73663;51.298;5.802;2024-03-02T17:11:37;2.65;;;1.00;;
83682;SDS011;73663;51.298;5.802;2024-03-02T17:16:45;2.30;;;1.30;;
83682;SDS011;73663;51.298;5.802;2024-03-02T17:21:52;2.50;;;1.17;;
83682;SDS011;73663;51.298;5.802;2024-03-02T17:27:00;2.00;;;1.20;;
83682;SDS011;73663;51.298;5.802;2024-03-02T17:32:07;1.67;;;1.00;;
83682;SDS011;73663;51.298;5.802;2024-03-02T17:37:15;1.90;;;1.20;;
83682;SDS011;73663;51.298;5.802;2024-03-02T17:42:22;1.30;;;1.20;;
83682;SDS011;73663;51.298;5.802;2024-03-02T17:47:30;2.67;;;1.13;;
83682;SDS011;73663;51.298;5.802;2024-03-02T17:52:37;3.05;;;1.10;;
83682;SDS011;73663;51.298;5.802;2024-03-02T17:57:45;2.70;;;1.60;;
83682;SDS011;73663;51.298;5.802;2024-03-02T18:02:53;2.03;;;0.90;;
83682;SDS011;73663;51.298;5.802;2024-03-02T18:08:00;1.95;;;1.00;;
83682;SDS011;73663;51.298;5.802;2024-03-02T18:13:08;1.67;;;1.05;;
83682;SDS011;73663;51.298;5.802;2024-03-02T18:18:15;2.60;;;1.00;;
83682;SDS011;73663;51.298;5.802;2024-03-02T18:23:23;2.05;;;1.10;;
83682;SDS011;73663;51.298;5.802;2024-03-02T18:28:30;2.05;;;0.95;;
83682;SDS011;73663;51.298;5.802;2024-03-02T18:33:38;1.52;;;0.80;;
83682;SDS011;73663;51.298;5.802;2024-03-02T18:38:45;2.17;;;1.15;;
83682;SDS011;73663;51.298;5.802;2024-03-02T18:43:53;2.33;;;1.10;;
83682;SDS011;73663;51.298;5.802;2024-03-02T18:49:00;1.90;;;1.10;;
83682;SDS011;73663;51.298;5.802;2024-03-02T18:54:08;2.30;;;1.02;;
83682;SDS011;73663;51.298;5.802;2024-03-02T18:59:18;2.28;;;1.23;;
83682;SDS011;73663;51.298;5.802;2024-03-02T19:04:26;4.07;;;1.48;;
83682;SDS011;73663;51.298;5.802;2024-03-02T19:09:33;3.33;;;1.50;;
83682;SDS011;73663;51.298;5.802;2024-03-02T19:14:41;3.28;;;1.50;;
83682;SDS011;73663;51.298;5.802;2024-03-02T19:19:48;2.50;;;1.45;;
83682;SDS011;73663;51.298;5.802;2024-03-02T19:24:56;2.22;;;1.63;;
83682;SDS011;73663;51.298;5.802;2024-03-02T19:30:03;3.90;;;2.15;;
83682;SDS011;73663;51.298;5.802;2024-03-02T19:35:11;4.05;;;1.60;;
83682;SDS011;73663;51.298;5.802;2024-03-02T19:40:19;7.03;;;1.77;;
83682;SDS011;73663;51.298;5.802;2024-03-02T19:45:26;3.17;;;1.70;;
83682;SDS011;73663;51.298;5.802;2024-03-02T19:50:34;2.60;;;1.70;;
83682;SDS011;73663;51.298;5.802;2024-03-02T19:55:41;3.35;;;1.50;;
83682;SDS011;73663;51.298;5.802;2024-03-02T20:00:48;2.90;;;1.98;;
83682;SDS011;73663;51.298;5.802;2024-03-02T20:05:56;3.45;;;1.80;;
83682;SDS011;73663;51.298;5.802;2024-03-02T20:11:04;3.53;;;1.83;;
83682;SDS011;73663;51.298;5.802;2024-03-02T20:16:11;3.60;;;2.40;;
83682;SDS011;73663;51.298;5.802;2024-03-02T20:21:19;3.25;;;1.80;;
83682;SDS011;73663;51.298;5.802;2024-03-02T20:26:27;3.08;;;1.92;;
83682;SDS011;73663;51.298;5.802;2024-03-02T20:31:36;2.97;;;2.03;;
83682;SDS011;73663;51.298;5.802;2024-03-02T20:36:43;3.35;;;1.75;;
83682;SDS011;73663;51.298;5.802;2024-03-02T20:41:51;4.88;;;2.55;;
83682;SDS011;73663;51.298;5.802;2024-03-02T20:46:58;2.88;;;2.08;;
83682;SDS011;73663;51.298;5.802;2024-03-02T20:52:06;4.38;;;3.13;;
83682;SDS011;73663;51.298;5.802;2024-03-02T20:57:13;5.47;;;3.38;;
83682;SDS011;73663;51.298;5.802;2024-03-02T21:02:21;4.05;;;2.88;;
83682;SDS011;73663;51.298;5.802;2024-03-02T21:07:28;3.85;;;2.30;;
83682;SDS011;73663;51.298;5.802;2024-03-02T21:12:36;3.92;;;2.10;;
83682;SDS011;73663;51.298;5.802;2024-03-02T21:17:44;3.90;;;1.98;;
83682;SDS011;73663;51.298;5.802;2024-03-02T21:22:51;4.57;;;2.47;;
83682;SDS011;73663;51.298;5.802;2024-03-02T21:27:59;5.82;;;2.30;;
83682;SDS011;73663;51.298;5.802;2024-03-02T21:33:06;4.13;;;2.20;;
83682;SDS011;73663;51.298;5.802;2024-03-02T21:38:14;5.45;;;2.53;;
83682;SDS011;73663;51.298;5.802;2024-03-02T21:43:21;4.05;;;2.30;;
83682;SDS011;73663;51.298;5.802;2024-03-02T21:48:29;3.95;;;2.45;;
83682;SDS011;73663;51.298;5.802;2024-03-02T21:53:37;3.60;;;2.22;;
83682;SDS011;73663;51.298;5.802;2024-03-02T21:58:44;3.97;;;2.10;;
83682;SDS011;73663;51.298;5.802;2024-03-02T22:03:52;3.53;;;2.28;;
83682;SDS011;73663;51.298;5.802;2024-03-02T22:08:59;6.50;;;2.40;;
83682;SDS011;73663;51.298;5.802;2024-03-02T22:14:07;2.88;;;1.90;;
83682;SDS011;73663;51.298;5.802;2024-03-02T22:19:14;3.30;;;2.13;;
83682;SDS011;73663;51.298;5.802;2024-03-02T22:24:22;3.15;;;2.22;;
83682;SDS011;73663;51.298;5.802;2024-03-02T22:29:29;4.10;;;2.17;;
83682;SDS011;73663;51.298;5.802;2024-03-02T22:34:37;3.30;;;1.95;;
83682;SDS011;73663;51.298;5.802;2024-03-02T22:39:44;3.78;;;1.80;;
83682;SDS011;73663;51.298;5.802;2024-03-02T22:44:51;2.53;;;1.77;;
83682;SDS011;73663;51.298;5.802;2024-03-02T22:49:59;3.22;;;1.95;;
83682;SDS011;73663;51.298;5.802;2024-03-02T23:00:14;2.72;;;1.60;;
83682;SDS011;73663;51.298;5.802;2024-03-02T23:05:33;4.40;;;1.80;;
83682;SDS011;73663;51.298;5.802;2024-03-02T23:10:40;5.15;;;1.90;;
83682;SDS011;73663;51.298;5.802;2024-03-02T23:15:48;3.40;;;2.08;;
83682;SDS011;73663;51.298;5.802;2024-03-02T23:20:58;2.85;;;1.92;;
83682;SDS011;73663;51.298;5.802;2024-03-02T23:26:06;2.65;;;1.55;;
83682;SDS011;73663;51.298;5.802;2024-03-02T23:31:13;4.78;;;1.90;;
83682;SDS011;73663;51.298;5.802;2024-03-02T23:36:21;3.20;;;2.00;;
83682;SDS011;73663;51.298;5.802;2024-03-02T23:41:28;6.80;;;2.00;;
83682;SDS011;73663;51.298;5.802;2024-03-02T23:46:36;3.35;;;2.13;;
83682;SDS011;73663;51.298;5.802;2024-03-02T23:51:43;3.78;;;1.98;;
83682;SDS011;73663;51.298;5.802;2024-03-02T23:56:51;3.25;;;1.95;;
